sensor_id;sensor_type;location;lat;lon;timestamp;P1;durP1;ratioP1;P2;durP2;ratioP2
12681;SDS011;6405;59.208;18.216;2023-08-31T00:00:33;5.20;;;3.27;;
12681;SDS011;6405;59.208;18.216;2023-08-31T00:03:01;4.43;;;3.50;;
12681;SDS011;6405;59.208;18.216;2023-08-31T00:05:27;5.77;;;3.37;;
12681;SDS011;6405;59.208;18.216;2023-08-31T00:07:55;6.37;;;3.40;;
12681;SDS011;6405;59.208;18.216;2023-08-31T00:10:21;6.53;;;3.70;;
12681;SDS011;6405;59.208;18.216;2023-08-31T00:12:47;3.87;;;3.57;;
12681;SDS011;6405;59.208;18.216;2023-08-31T00:15:14;8.10;;;3.70;;
12681;SDS011;6405;59.208;18.216;2023-08-31T00:17:40;3.67;;;3.37;;
12681;SDS011;6405;59.208;18.216;2023-08-31T00:20:06;11.63;;;4.20;;
12681;SDS011;6405;59.208;18.216;2023-08-31T00:22:36;4.93;;;3.50;;
12681;SDS011;6405;59.208;18.216;2023-08-31T00:25:03;5.80;;;3.47;;
12681;SDS011;6405;59.208;18.216;2023-08-31T00:27:30;3.77;;;3.33;;
12681;SDS011;6405;59.208;18.216;2023-08-31T00:29:56;6.63;;;3.60;;
12681;SDS011;6405;59.208;18.216;2023-08-31T00:32:23;3.63;;;3.33;;
12681;SDS011;6405;59.208;18.216;2023-08-31T00:34:49;5.10;;;3.43;;
12681;SDS011;6405;59.208;18.216;2023-08-31T00:37:15;5.37;;;4.00;;
12681;SDS011;6405;59.208;18.216;2023-08-31T00:39:41;5.17;;;4.17;;
12681;SDS011;6405;59.208;18.216;2023-08-31T00:42:08;4.93;;;4.30;;
12681;SDS011;6405;59.208;18.216;2023-08-31T00:44:34;5.10;;;4.30;;
12681;SDS011;6405;59.208;18.216;2023-08-31T00:47:00;4.77;;;4.33;;
12681;SDS011;6405;59.208;18.216;2023-08-31T00:49:27;5.70;;;4.20;;
12681;SDS011;6405;59.208;18.216;2023-08-31T00:51:53;5.10;;;4.37;;
12681;SDS011;6405;59.208;18.216;2023-08-31T00:54:22;5.43;;;4.30;;
12681;SDS011;6405;59.208;18.216;2023-08-31T00:56:51;4.63;;;3.97;;
12681;SDS011;6405;59.208;18.216;2023-08-31T00:59:20;6.27;;;3.70;;
12681;SDS011;6405;59.208;18.216;2023-08-31T01:01:49;4.63;;;4.23;;
12681;SDS011;6405;59.208;18.216;2023-08-31T01:04:27;5.40;;;4.07;;
12681;SDS011;6405;59.208;18.216;2023-08-31T01:07:04;5.50;;;4.23;;
12681;SDS011;6405;59.208;18.216;2023-08-31T01:12:26;5.90;;;5.13;;
12681;SDS011;6405;59.208;18.216;2023-08-31T01:15:02;6.50;;;5.10;;
12681;SDS011;6405;59.208;18.216;2023-08-31T01:17:29;5.97;;;5.20;;
12681;SDS011;6405;59.208;18.216;2023-08-31T01:19:57;7.27;;;4.80;;
12681;SDS011;6405;59.208;18.216;2023-08-31T01:24:59;6.73;;;5.27;;
12681;SDS011;6405;59.208;18.216;2023-08-31T01:27:29;6.23;;;4.47;;
12681;SDS011;6405;59.208;18.216;2023-08-31T01:29:58;5.93;;;4.27;;
12681;SDS011;6405;59.208;18.216;2023-08-31T01:32:24;9.53;;;4.17;;
12681;SDS011;6405;59.208;18.216;2023-08-31T01:34:50;5.37;;;4.77;;
12681;SDS011;6405;59.208;18.216;2023-08-31T01:37:27;6.30;;;4.13;;
12681;SDS011;6405;59.208;18.216;2023-08-31T01:40:27;5.67;;;4.47;;
12681;SDS011;6405;59.208;18.216;2023-08-31T01:43:14;6.07;;;4.07;;
12681;SDS011;6405;59.208;18.216;2023-08-31T01:45:42;7.40;;;5.20;;
12681;SDS011;6405;59.208;18.216;2023-08-31T01:48:10;7.07;;;5.10;;
12681;SDS011;6405;59.208;18.216;2023-08-31T01:50:36;6.53;;;5.23;;
12681;SDS011;6405;59.208;18.216;2023-08-31T01:53:02;5.13;;;4.60;;
12681;SDS011;6405;59.208;18.216;2023-08-31T01:55:28;6.50;;;5.10;;
12681;SDS011;6405;59.208;18.216;2023-08-31T01:57:53;5.43;;;4.87;;
12681;SDS011;6405;59.208;18.216;2023-08-31T02:00:19;5.30;;;4.37;;
12681;SDS011;6405;59.208;18.216;2023-08-31T02:02:45;7.33;;;4.10;;
12681;SDS011;6405;59.208;18.216;2023-08-31T02:05:11;5.47;;;4.33;;
12681;SDS011;6405;59.208;18.216;2023-08-31T02:07:36;7.83;;;4.33;;
12681;SDS011;6405;59.208;18.216;2023-08-31T02:10:03;7.70;;;4.20;;
12681;SDS011;6405;59.208;18.216;2023-08-31T02:12:31;4.37;;;3.97;;
12681;SDS011;6405;59.208;18.216;2023-08-31T02:15:02;7.90;;;4.67;;
12681;SDS011;6405;59.208;18.216;2023-08-31T02:17:29;6.20;;;4.50;;
12681;SDS011;6405;59.208;18.216;2023-08-31T02:19:55;5.63;;;4.07;;
12681;SDS011;6405;59.208;18.216;2023-08-31T02:22:20;7.10;;;4.27;;
12681;SDS011;6405;59.208;18.216;2023-08-31T02:24:46;5.63;;;3.90;;
12681;SDS011;6405;59.208;18.216;2023-08-31T02:27:12;7.50;;;4.17;;
12681;SDS011;6405;59.208;18.216;2023-08-31T02:29:37;4.90;;;3.87;;
12681;SDS011;6405;59.208;18.216;2023-08-31T02:32:04;7.07;;;4.10;;
12681;SDS011;6405;59.208;18.216;2023-08-31T02:34:30;4.40;;;4.00;;
12681;SDS011;6405;59.208;18.216;2023-08-31T02:36:55;5.27;;;3.60;;
12681;SDS011;6405;59.208;18.216;2023-08-31T02:39:21;4.13;;;3.30;;
12681;SDS011;6405;59.208;18.216;2023-08-31T02:41:47;3.77;;;3.27;;
12681;SDS011;6405;59.208;18.216;2023-08-31T02:44:12;4.00;;;3.10;;
12681;SDS011;6405;59.208;18.216;2023-08-31T02:46:38;4.87;;;3.53;;
12681;SDS011;6405;59.208;18.216;2023-08-31T02:49:04;7.03;;;3.20;;
12681;SDS011;6405;59.208;18.216;2023-08-31T02:51:30;3.77;;;3.37;;
12681;SDS011;6405;59.208;18.216;2023-08-31T02:53:55;4.00;;;3.13;;
12681;SDS011;6405;59.208;18.216;2023-08-31T02:56:21;5.87;;;3.73;;
12681;SDS011;6405;59.208;18.216;2023-08-31T02:58:47;4.03;;;3.00;;
12681;SDS011;6405;59.208;18.216;2023-08-31T03:01:13;6.03;;;3.23;;
12681;SDS011;6405;59.208;18.216;2023-08-31T03:03:39;3.23;;;2.93;;
12681;SDS011;6405;59.208;18.216;2023-08-31T03:06:06;4.30;;;2.80;;
12681;SDS011;6405;59.208;18.216;2023-08-31T03:08:35;4.87;;;2.87;;
12681;SDS011;6405;59.208;18.216;2023-08-31T03:11:02;3.33;;;3.03;;
12681;SDS011;6405;59.208;18.216;2023-08-31T03:13:30;5.37;;;3.13;;
12681;SDS011;6405;59.208;18.216;2023-08-31T03:15:56;3.63;;;3.07;;
12681;SDS011;6405;59.208;18.216;2023-08-31T03:18:22;3.10;;;2.73;;
12681;SDS011;6405;59.208;18.216;2023-08-31T03:20:48;4.50;;;2.80;;
12681;SDS011;6405;59.208;18.216;2023-08-31T03:23:14;7.33;;;3.37;;
12681;SDS011;6405;59.208;18.216;2023-08-31T03:25:40;3.50;;;3.20;;
12681;SDS011;6405;59.208;18.216;2023-08-31T03:28:06;4.37;;;3.97;;
12681;SDS011;6405;59.208;18.216;2023-08-31T03:30:32;4.30;;;3.60;;
12681;SDS011;6405;59.208;18.216;2023-08-31T03:32:57;3.97;;;3.47;;
12681;SDS011;6405;59.208;18.216;2023-08-31T03:35:23;4.60;;;3.40;;
12681;SDS011;6405;59.208;18.216;2023-08-31T03:37:52;3.93;;;3.10;;
12681;SDS011;6405;59.208;18.216;2023-08-31T03:40:18;4.47;;;3.27;;
12681;SDS011;6405;59.208;18.216;2023-08-31T03:42:44;4.77;;;3.83;;
12681;SDS011;6405;59.208;18.216;2023-08-31T03:45:10;4.20;;;3.80;;
12681;SDS011;6405;59.208;18.216;2023-08-31T03:47:36;6.40;;;3.60;;
12681;SDS011;6405;59.208;18.216;2023-08-31T03:50:02;3.63;;;3.33;;
12681;SDS011;6405;59.208;18.216;2023-08-31T03:52:29;5.07;;;3.30;;
12681;SDS011;6405;59.208;18.216;2023-08-31T03:54:55;3.90;;;2.97;;
12681;SDS011;6405;59.208;18.216;2023-08-31T03:57:20;5.40;;;3.20;;
12681;SDS011;6405;59.208;18.216;2023-08-31T03:59:46;4.37;;;3.43;;
12681;SDS011;6405;59.208;18.216;2023-08-31T04:02:12;3.87;;;3.20;;
12681;SDS011;6405;59.208;18.216;2023-08-31T04:04:38;6.40;;;3.40;;
12681;SDS011;6405;59.208;18.216;2023-08-31T04:07:04;3.20;;;2.90;;
12681;SDS011;6405;59.208;18.216;2023-08-31T04:09:31;4.20;;;2.90;;
12681;SDS011;6405;59.208;18.216;2023-08-31T04:11:57;4.27;;;3.20;;
12681;SDS011;6405;59.208;18.216;2023-08-31T04:14:22;3.40;;;3.10;;
12681;SDS011;6405;59.208;18.216;2023-08-31T04:16:48;4.80;;;3.17;;
12681;SDS011;6405;59.208;18.216;2023-08-31T04:19:15;4.03;;;3.60;;
12681;SDS011;6405;59.208;18.216;2023-08-31T04:21:42;3.10;;;2.80;;
12681;SDS011;6405;59.208;18.216;2023-08-31T04:24:08;3.23;;;2.93;;
12681;SDS011;6405;59.208;18.216;2023-08-31T04:26:34;4.40;;;3.60;;
12681;SDS011;6405;59.208;18.216;2023-08-31T04:29:00;3.20;;;2.90;;
12681;SDS011;6405;59.208;18.216;2023-08-31T04:31:28;5.03;;;3.53;;
12681;SDS011;6405;59.208;18.216;2023-08-31T04:33:54;4.27;;;3.50;;
12681;SDS011;6405;59.208;18.216;2023-08-31T04:36:20;5.33;;;3.23;;
12681;SDS011;6405;59.208;18.216;2023-08-31T04:38:47;3.67;;;2.90;;
12681;SDS011;6405;59.208;18.216;2023-08-31T04:41:14;3.37;;;2.97;;
12681;SDS011;6405;59.208;18.216;2023-08-31T04:43:40;6.53;;;3.43;;
12681;SDS011;6405;59.208;18.216;2023-08-31T04:46:06;3.10;;;2.80;;
12681;SDS011;6405;59.208;18.216;2023-08-31T04:48:32;3.67;;;2.70;;
12681;SDS011;6405;59.208;18.216;2023-08-31T04:50:58;3.90;;;3.50;;
12681;SDS011;6405;59.208;18.216;2023-08-31T04:53:24;3.77;;;3.40;;
12681;SDS011;6405;59.208;18.216;2023-08-31T04:55:50;6.07;;;3.27;;
12681;SDS011;6405;59.208;18.216;2023-08-31T04:58:15;3.83;;;3.17;;
12681;SDS011;6405;59.208;18.216;2023-08-31T05:00:41;5.87;;;2.73;;
12681;SDS011;6405;59.208;18.216;2023-08-31T05:03:09;3.80;;;3.10;;
12681;SDS011;6405;59.208;18.216;2023-08-31T05:05:35;4.73;;;3.10;;
12681;SDS011;6405;59.208;18.216;2023-08-31T05:08:01;3.07;;;2.73;;
12681;SDS011;6405;59.208;18.216;2023-08-31T05:10:27;2.77;;;2.57;;
12681;SDS011;6405;59.208;18.216;2023-08-31T05:12:53;3.30;;;3.00;;
12681;SDS011;6405;59.208;18.216;2023-08-31T05:15:19;4.00;;;2.90;;
12681;SDS011;6405;59.208;18.216;2023-08-31T05:17:44;3.27;;;2.97;;
12681;SDS011;6405;59.208;18.216;2023-08-31T05:20:10;4.23;;;3.27;;
12681;SDS011;6405;59.208;18.216;2023-08-31T05:22:36;2.53;;;2.33;;
12681;SDS011;6405;59.208;18.216;2023-08-31T05:25:02;3.00;;;2.80;;
12681;SDS011;6405;59.208;18.216;2023-08-31T05:27:29;2.90;;;2.70;;
12681;SDS011;6405;59.208;18.216;2023-08-31T05:29:55;3.43;;;2.73;;
12681;SDS011;6405;59.208;18.216;2023-08-31T05:32:20;4.17;;;2.67;;
12681;SDS011;6405;59.208;18.216;2023-08-31T05:34:46;3.30;;;2.87;;
12681;SDS011;6405;59.208;18.216;2023-08-31T05:37:12;3.83;;;2.90;;
12681;SDS011;6405;59.208;18.216;2023-08-31T05:39:39;3.30;;;2.60;;
12681;SDS011;6405;59.208;18.216;2023-08-31T05:42:04;3.23;;;2.63;;
12681;SDS011;6405;59.208;18.216;2023-08-31T05:44:30;3.77;;;2.90;;
12681;SDS011;6405;59.208;18.216;2023-08-31T05:46:56;2.87;;;2.67;;
12681;SDS011;6405;59.208;18.216;2023-08-31T05:49:21;3.23;;;2.70;;
12681;SDS011;6405;59.208;18.216;2023-08-31T05:51:48;3.97;;;2.63;;
12681;SDS011;6405;59.208;18.216;2023-08-31T05:54:14;4.03;;;3.07;;
12681;SDS011;6405;59.208;18.216;2023-08-31T05:56:40;2.80;;;2.57;;
12681;SDS011;6405;59.208;18.216;2023-08-31T05:59:06;3.07;;;2.60;;
12681;SDS011;6405;59.208;18.216;2023-08-31T06:01:32;7.03;;;2.60;;
12681;SDS011;6405;59.208;18.216;2023-08-31T06:03:58;3.17;;;2.30;;
12681;SDS011;6405;59.208;18.216;2023-08-31T06:06:24;2.60;;;2.30;;
12681;SDS011;6405;59.208;18.216;2023-08-31T06:08:50;4.83;;;2.50;;
12681;SDS011;6405;59.208;18.216;2023-08-31T06:11:16;3.20;;;2.70;;
12681;SDS011;6405;59.208;18.216;2023-08-31T06:13:41;3.00;;;2.53;;
12681;SDS011;6405;59.208;18.216;2023-08-31T06:16:07;2.50;;;2.30;;
12681;SDS011;6405;59.208;18.216;2023-08-31T06:18:33;2.57;;;2.30;;
12681;SDS011;6405;59.208;18.216;2023-08-31T06:20:58;2.77;;;2.37;;
12681;SDS011;6405;59.208;18.216;2023-08-31T06:23:24;2.43;;;2.23;;
12681;SDS011;6405;59.208;18.216;2023-08-31T06:25:50;3.47;;;2.20;;
12681;SDS011;6405;59.208;18.216;2023-08-31T06:28:15;2.63;;;2.30;;
12681;SDS011;6405;59.208;18.216;2023-08-31T06:30:41;3.87;;;2.23;;
12681;SDS011;6405;59.208;18.216;2023-08-31T06:33:12;2.50;;;2.20;;
12681;SDS011;6405;59.208;18.216;2023-08-31T06:35:39;5.03;;;2.30;;
12681;SDS011;6405;59.208;18.216;2023-08-31T06:38:05;2.57;;;2.20;;
12681;SDS011;6405;59.208;18.216;2023-08-31T06:40:30;2.97;;;1.80;;
12681;SDS011;6405;59.208;18.216;2023-08-31T06:42:56;2.92;;;1.90;;
12681;SDS011;6405;59.208;18.216;2023-08-31T06:45:22;2.00;;;1.90;;
12681;SDS011;6405;59.208;18.216;2023-08-31T06:47:48;2.53;;;1.70;;
12681;SDS011;6405;59.208;18.216;2023-08-31T06:50:14;2.13;;;1.90;;
12681;SDS011;6405;59.208;18.216;2023-08-31T06:52:40;2.60;;;2.00;;
12681;SDS011;6405;59.208;18.216;2023-08-31T06:55:07;3.70;;;2.00;;
12681;SDS011;6405;59.208;18.216;2023-08-31T06:57:33;3.27;;;1.80;;
12681;SDS011;6405;59.208;18.216;2023-08-31T06:59:59;2.70;;;1.63;;
12681;SDS011;6405;59.208;18.216;2023-08-31T07:02:26;2.53;;;1.87;;
12681;SDS011;6405;59.208;18.216;2023-08-31T07:04:51;3.80;;;1.80;;
12681;SDS011;6405;59.208;18.216;2023-08-31T07:07:17;3.77;;;2.00;;
12681;SDS011;6405;59.208;18.216;2023-08-31T07:09:43;2.80;;;1.43;;
12681;SDS011;6405;59.208;18.216;2023-08-31T07:12:11;5.30;;;1.90;;
12681;SDS011;6405;59.208;18.216;2023-08-31T07:14:37;2.00;;;1.50;;
12681;SDS011;6405;59.208;18.216;2023-08-31T07:17:03;2.53;;;1.60;;
12681;SDS011;6405;59.208;18.216;2023-08-31T07:19:29;3.33;;;1.60;;
12681;SDS011;6405;59.208;18.216;2023-08-31T07:21:55;3.37;;;2.20;;
12681;SDS011;6405;59.208;18.216;2023-08-31T07:24:22;2.67;;;1.67;;
12681;SDS011;6405;59.208;18.216;2023-08-31T07:26:48;3.23;;;1.50;;
12681;SDS011;6405;59.208;18.216;2023-08-31T07:29:15;2.50;;;1.60;;
12681;SDS011;6405;59.208;18.216;2023-08-31T07:31:40;2.70;;;1.63;;
12681;SDS011;6405;59.208;18.216;2023-08-31T07:34:06;3.23;;;1.87;;
12681;SDS011;6405;59.208;18.216;2023-08-31T07:36:33;3.83;;;1.90;;
12681;SDS011;6405;59.208;18.216;2023-08-31T07:38:59;2.97;;;1.80;;
12681;SDS011;6405;59.208;18.216;2023-08-31T07:41:24;1.73;;;1.50;;
12681;SDS011;6405;59.208;18.216;2023-08-31T07:43:50;4.43;;;1.87;;
12681;SDS011;6405;59.208;18.216;2023-08-31T07:46:18;2.77;;;1.30;;
12681;SDS011;6405;59.208;18.216;2023-08-31T07:48:44;2.60;;;1.60;;
12681;SDS011;6405;59.208;18.216;2023-08-31T07:51:09;3.47;;;1.63;;
12681;SDS011;6405;59.208;18.216;2023-08-31T07:53:35;3.30;;;1.60;;
12681;SDS011;6405;59.208;18.216;2023-08-31T07:56:01;2.77;;;1.57;;
12681;SDS011;6405;59.208;18.216;2023-08-31T07:58:26;2.20;;;1.87;;
12681;SDS011;6405;59.208;18.216;2023-08-31T08:00:52;3.77;;;1.80;;
12681;SDS011;6405;59.208;18.216;2023-08-31T08:03:22;2.77;;;1.53;;
12681;SDS011;6405;59.208;18.216;2023-08-31T08:05:48;1.93;;;1.57;;
12681;SDS011;6405;59.208;18.216;2023-08-31T08:08:14;5.30;;;1.57;;
12681;SDS011;6405;59.208;18.216;2023-08-31T08:10:40;2.23;;;1.43;;
12681;SDS011;6405;59.208;18.216;2023-08-31T08:13:06;2.73;;;1.60;;
12681;SDS011;6405;59.208;18.216;2023-08-31T08:15:31;1.77;;;1.47;;
12681;SDS011;6405;59.208;18.216;2023-08-31T08:17:57;2.73;;;1.33;;
12681;SDS011;6405;59.208;18.216;2023-08-31T08:20:23;3.17;;;1.40;;
12681;SDS011;6405;59.208;18.216;2023-08-31T08:22:49;2.40;;;1.37;;
12681;SDS011;6405;59.208;18.216;2023-08-31T08:25:21;3.47;;;1.60;;
12681;SDS011;6405;59.208;18.216;2023-08-31T08:27:47;1.67;;;1.57;;
12681;SDS011;6405;59.208;18.216;2023-08-31T08:30:13;2.67;;;1.70;;
12681;SDS011;6405;59.208;18.216;2023-08-31T08:32:40;2.60;;;1.67;;
12681;SDS011;6405;59.208;18.216;2023-08-31T08:35:06;3.07;;;1.50;;
12681;SDS011;6405;59.208;18.216;2023-08-31T08:37:32;2.87;;;1.30;;
12681;SDS011;6405;59.208;18.216;2023-08-31T08:39:58;2.13;;;1.50;;
12681;SDS011;6405;59.208;18.216;2023-08-31T08:42:24;1.93;;;1.80;;
12681;SDS011;6405;59.208;18.216;2023-08-31T08:44:51;2.93;;;1.63;;
12681;SDS011;6405;59.208;18.216;2023-08-31T08:47:20;2.93;;;1.50;;
12681;SDS011;6405;59.208;18.216;2023-08-31T08:49:46;3.93;;;1.47;;
12681;SDS011;6405;59.208;18.216;2023-08-31T08:52:12;2.90;;;1.47;;
12681;SDS011;6405;59.208;18.216;2023-08-31T08:54:40;2.00;;;1.20;;
12681;SDS011;6405;59.208;18.216;2023-08-31T08:57:05;2.87;;;1.27;;
12681;SDS011;6405;59.208;18.216;2023-08-31T08:59:31;2.30;;;1.30;;
12681;SDS011;6405;59.208;18.216;2023-08-31T09:01:57;1.30;;;1.20;;
12681;SDS011;6405;59.208;18.216;2023-08-31T09:04:23;2.23;;;1.20;;
12681;SDS011;6405;59.208;18.216;2023-08-31T09:06:52;1.87;;;1.60;;
12681;SDS011;6405;59.208;18.216;2023-08-31T09:09:17;2.07;;;1.20;;
12681;SDS011;6405;59.208;18.216;2023-08-31T09:11:44;1.57;;;1.03;;
12681;SDS011;6405;59.208;18.216;2023-08-31T09:14:14;1.30;;;1.20;;
12681;SDS011;6405;59.208;18.216;2023-08-31T09:16:44;1.40;;;1.10;;
12681;SDS011;6405;59.208;18.216;2023-08-31T09:19:18;2.10;;;1.23;;
12681;SDS011;6405;59.208;18.216;2023-08-31T09:21:48;1.20;;;1.10;;
12681;SDS011;6405;59.208;18.216;2023-08-31T09:24:14;2.10;;;1.10;;
12681;SDS011;6405;59.208;18.216;2023-08-31T09:26:52;1.30;;;1.20;;
12681;SDS011;6405;59.208;18.216;2023-08-31T09:29:21;1.97;;;1.30;;
12681;SDS011;6405;59.208;18.216;2023-08-31T09:31:47;3.13;;;1.33;;
12681;SDS011;6405;59.208;18.216;2023-08-31T09:34:17;1.43;;;0.93;;
12681;SDS011;6405;59.208;18.216;2023-08-31T09:36:43;2.43;;;1.30;;
12681;SDS011;6405;59.208;18.216;2023-08-31T09:39:09;2.40;;;1.30;;
12681;SDS011;6405;59.208;18.216;2023-08-31T09:41:57;2.17;;;1.10;;
12681;SDS011;6405;59.208;18.216;2023-08-31T09:44:24;3.47;;;1.30;;
12681;SDS011;6405;59.208;18.216;2023-08-31T09:46:50;1.40;;;1.10;;
12681;SDS011;6405;59.208;18.216;2023-08-31T09:49:17;1.27;;;1.10;;
12681;SDS011;6405;59.208;18.216;2023-08-31T09:51:45;2.07;;;1.17;;
12681;SDS011;6405;59.208;18.216;2023-08-31T09:54:15;1.90;;;1.60;;
12681;SDS011;6405;59.208;18.216;2023-08-31T09:56:43;2.03;;;1.30;;
12681;SDS011;6405;59.208;18.216;2023-08-31T09:59:10;2.67;;;1.10;;
12681;SDS011;6405;59.208;18.216;2023-08-31T10:01:39;1.30;;;1.20;;
12681;SDS011;6405;59.208;18.216;2023-08-31T10:04:06;2.03;;;1.00;;
12681;SDS011;6405;59.208;18.216;2023-08-31T10:06:37;0.80;;;0.80;;
12681;SDS011;6405;59.208;18.216;2023-08-31T10:09:04;1.30;;;1.20;;
12681;SDS011;6405;59.208;18.216;2023-08-31T10:11:30;1.10;;;1.00;;
12681;SDS011;6405;59.208;18.216;2023-08-31T10:13:57;1.60;;;1.20;;
12681;SDS011;6405;59.208;18.216;2023-08-31T10:16:26;1.17;;;1.03;;
12681;SDS011;6405;59.208;18.216;2023-08-31T10:18:53;2.33;;;1.20;;
12681;SDS011;6405;59.208;18.216;2023-08-31T10:21:20;1.33;;;1.23;;
12681;SDS011;6405;59.208;18.216;2023-08-31T10:23:50;4.23;;;1.40;;
12681;SDS011;6405;59.208;18.216;2023-08-31T10:26:22;1.40;;;1.30;;
12681;SDS011;6405;59.208;18.216;2023-08-31T10:28:53;3.27;;;1.17;;
12681;SDS011;6405;59.208;18.216;2023-08-31T10:31:19;1.67;;;1.33;;
12681;SDS011;6405;59.208;18.216;2023-08-31T10:34:01;1.23;;;1.10;;
12681;SDS011;6405;59.208;18.216;2023-08-31T10:36:42;1.10;;;0.97;;
12681;SDS011;6405;59.208;18.216;2023-08-31T10:39:11;2.33;;;1.37;;
12681;SDS011;6405;59.208;18.216;2023-08-31T10:41:41;1.30;;;1.20;;
12681;SDS011;6405;59.208;18.216;2023-08-31T10:44:20;1.20;;;1.10;;
12681;SDS011;6405;59.208;18.216;2023-08-31T10:46:47;2.53;;;0.97;;
12681;SDS011;6405;59.208;18.216;2023-08-31T10:49:17;1.87;;;1.13;;
12681;SDS011;6405;59.208;18.216;2023-08-31T10:51:45;1.13;;;1.00;;
12681;SDS011;6405;59.208;18.216;2023-08-31T10:54:25;0.97;;;0.80;;
12681;SDS011;6405;59.208;18.216;2023-08-31T10:59:25;1.00;;;0.83;;
12681;SDS011;6405;59.208;18.216;2023-08-31T11:02:05;1.20;;;0.80;;
12681;SDS011;6405;59.208;18.216;2023-08-31T11:04:38;1.60;;;0.90;;
12681;SDS011;6405;59.208;18.216;2023-08-31T11:07:18;1.00;;;0.90;;
12681;SDS011;6405;59.208;18.216;2023-08-31T11:09:45;1.23;;;0.90;;
12681;SDS011;6405;59.208;18.216;2023-08-31T11:12:11;1.83;;;0.90;;
12681;SDS011;6405;59.208;18.216;2023-08-31T11:14:38;0.80;;;0.80;;
12681;SDS011;6405;59.208;18.216;2023-08-31T11:17:04;3.40;;;0.70;;
12681;SDS011;6405;59.208;18.216;2023-08-31T11:19:33;1.50;;;1.00;;
12681;SDS011;6405;59.208;18.216;2023-08-31T11:22:00;0.67;;;0.60;;
12681;SDS011;6405;59.208;18.216;2023-08-31T11:24:30;1.40;;;0.80;;
12681;SDS011;6405;59.208;18.216;2023-08-31T11:26:57;1.57;;;0.80;;
12681;SDS011;6405;59.208;18.216;2023-08-31T11:29:22;1.33;;;0.90;;
12681;SDS011;6405;59.208;18.216;2023-08-31T11:31:48;1.30;;;0.70;;
12681;SDS011;6405;59.208;18.216;2023-08-31T11:34:15;1.53;;;1.00;;
12681;SDS011;6405;59.208;18.216;2023-08-31T11:36:42;3.03;;;0.80;;
12681;SDS011;6405;59.208;18.216;2023-08-31T11:39:09;1.33;;;1.00;;
12681;SDS011;6405;59.208;18.216;2023-08-31T11:41:35;1.47;;;0.80;;
12681;SDS011;6405;59.208;18.216;2023-08-31T11:44:05;1.47;;;0.80;;
12681;SDS011;6405;59.208;18.216;2023-08-31T11:46:32;1.10;;;0.80;;
12681;SDS011;6405;59.208;18.216;2023-08-31T11:48:59;1.67;;;0.80;;
12681;SDS011;6405;59.208;18.216;2023-08-31T11:51:25;0.73;;;0.73;;
12681;SDS011;6405;59.208;18.216;2023-08-31T11:53:54;1.43;;;0.80;;
12681;SDS011;6405;59.208;18.216;2023-08-31T11:56:23;0.70;;;0.70;;
12681;SDS011;6405;59.208;18.216;2023-08-31T11:58:50;1.03;;;0.90;;
12681;SDS011;6405;59.208;18.216;2023-08-31T12:01:22;0.97;;;0.80;;
12681;SDS011;6405;59.208;18.216;2023-08-31T12:03:48;1.20;;;1.00;;
12681;SDS011;6405;59.208;18.216;2023-08-31T12:06:17;1.03;;;0.83;;
12681;SDS011;6405;59.208;18.216;2023-08-31T12:08:43;1.80;;;0.90;;
12681;SDS011;6405;59.208;18.216;2023-08-31T12:11:09;1.33;;;0.87;;
12681;SDS011;6405;59.208;18.216;2023-08-31T12:13:35;1.53;;;1.00;;
12681;SDS011;6405;59.208;18.216;2023-08-31T12:16:00;2.23;;;0.83;;
12681;SDS011;6405;59.208;18.216;2023-08-31T12:18:29;2.93;;;0.80;;
12681;SDS011;6405;59.208;18.216;2023-08-31T12:20:58;2.73;;;0.70;;
12681;SDS011;6405;59.208;18.216;2023-08-31T12:23:24;1.80;;;0.90;;
12681;SDS011;6405;59.208;18.216;2023-08-31T12:25:51;1.23;;;0.77;;
12681;SDS011;6405;59.208;18.216;2023-08-31T12:28:18;5.13;;;1.00;;
12681;SDS011;6405;59.208;18.216;2023-08-31T12:30:47;1.03;;;0.80;;
12681;SDS011;6405;59.208;18.216;2023-08-31T12:33:14;1.57;;;0.87;;
12681;SDS011;6405;59.208;18.216;2023-08-31T12:35:40;0.70;;;0.70;;
12681;SDS011;6405;59.208;18.216;2023-08-31T12:38:06;1.10;;;0.90;;
12681;SDS011;6405;59.208;18.216;2023-08-31T12:40:32;3.83;;;1.40;;
12681;SDS011;6405;59.208;18.216;2023-08-31T12:42:57;1.53;;;0.90;;
12681;SDS011;6405;59.208;18.216;2023-08-31T12:45:23;1.53;;;0.90;;
12681;SDS011;6405;59.208;18.216;2023-08-31T12:47:49;1.20;;;0.83;;
12681;SDS011;6405;59.208;18.216;2023-08-31T12:50:15;2.57;;;0.70;;
12681;SDS011;6405;59.208;18.216;2023-08-31T12:52:40;0.90;;;0.80;;
12681;SDS011;6405;59.208;18.216;2023-08-31T12:55:11;1.10;;;0.90;;
12681;SDS011;6405;59.208;18.216;2023-08-31T12:57:37;0.77;;;0.70;;
12681;SDS011;6405;59.208;18.216;2023-08-31T13:00:03;2.37;;;0.80;;
12681;SDS011;6405;59.208;18.216;2023-08-31T13:02:36;2.23;;;1.00;;
12681;SDS011;6405;59.208;18.216;2023-08-31T13:05:02;1.03;;;0.90;;
12681;SDS011;6405;59.208;18.216;2023-08-31T13:07:28;2.33;;;1.00;;
12681;SDS011;6405;59.208;18.216;2023-08-31T13:09:54;2.07;;;0.93;;
12681;SDS011;6405;59.208;18.216;2023-08-31T13:12:19;1.20;;;0.80;;
12681;SDS011;6405;59.208;18.216;2023-08-31T13:14:45;0.87;;;0.80;;
12681;SDS011;6405;59.208;18.216;2023-08-31T13:17:11;0.90;;;0.83;;
12681;SDS011;6405;59.208;18.216;2023-08-31T13:19:36;2.07;;;1.07;;
12681;SDS011;6405;59.208;18.216;2023-08-31T13:22:02;2.27;;;0.90;;
12681;SDS011;6405;59.208;18.216;2023-08-31T13:24:28;1.10;;;1.00;;
12681;SDS011;6405;59.208;18.216;2023-08-31T13:26:53;0.90;;;0.80;;
12681;SDS011;6405;59.208;18.216;2023-08-31T13:29:20;1.67;;;0.87;;
12681;SDS011;6405;59.208;18.216;2023-08-31T13:31:46;0.80;;;0.70;;
12681;SDS011;6405;59.208;18.216;2023-08-31T13:34:11;1.07;;;0.70;;
12681;SDS011;6405;59.208;18.216;2023-08-31T13:36:38;1.27;;;0.97;;
12681;SDS011;6405;59.208;18.216;2023-08-31T13:39:04;1.70;;;0.80;;
12681;SDS011;6405;59.208;18.216;2023-08-31T13:41:30;1.17;;;0.73;;
12681;SDS011;6405;59.208;18.216;2023-08-31T13:43:55;1.07;;;0.90;;
12681;SDS011;6405;59.208;18.216;2023-08-31T13:46:21;1.23;;;0.90;;
12681;SDS011;6405;59.208;18.216;2023-08-31T13:48:47;1.27;;;0.80;;
12681;SDS011;6405;59.208;18.216;2023-08-31T13:51:13;1.23;;;0.80;;
12681;SDS011;6405;59.208;18.216;2023-08-31T13:53:39;0.83;;;0.80;;
12681;SDS011;6405;59.208;18.216;2023-08-31T13:56:04;1.57;;;1.00;;
12681;SDS011;6405;59.208;18.216;2023-08-31T13:58:30;1.37;;;0.80;;
12681;SDS011;6405;59.208;18.216;2023-08-31T14:00:56;0.83;;;0.80;;
12681;SDS011;6405;59.208;18.216;2023-08-31T14:03:21;1.47;;;0.90;;
12681;SDS011;6405;59.208;18.216;2023-08-31T14:05:48;1.67;;;0.90;;
12681;SDS011;6405;59.208;18.216;2023-08-31T14:08:14;1.20;;;1.03;;
12681;SDS011;6405;59.208;18.216;2023-08-31T14:10:40;1.50;;;1.10;;
12681;SDS011;6405;59.208;18.216;2023-08-31T14:13:06;1.23;;;0.90;;
12681;SDS011;6405;59.208;18.216;2023-08-31T14:15:32;0.77;;;0.77;;
12681;SDS011;6405;59.208;18.216;2023-08-31T14:17:58;2.20;;;1.10;;
12681;SDS011;6405;59.208;18.216;2023-08-31T14:20:24;0.67;;;0.67;;
12681;SDS011;6405;59.208;18.216;2023-08-31T14:22:49;0.97;;;0.77;;
12681;SDS011;6405;59.208;18.216;2023-08-31T14:25:15;1.17;;;1.00;;
12681;SDS011;6405;59.208;18.216;2023-08-31T14:27:42;4.17;;;0.93;;
12681;SDS011;6405;59.208;18.216;2023-08-31T14:30:08;2.70;;;1.00;;
12681;SDS011;6405;59.208;18.216;2023-08-31T14:32:34;2.03;;;1.00;;
12681;SDS011;6405;59.208;18.216;2023-08-31T14:35:00;1.77;;;1.03;;
12681;SDS011;6405;59.208;18.216;2023-08-31T14:37:26;1.03;;;0.70;;
12681;SDS011;6405;59.208;18.216;2023-08-31T14:39:51;1.30;;;1.10;;
12681;SDS011;6405;59.208;18.216;2023-08-31T14:42:17;0.87;;;0.87;;
12681;SDS011;6405;59.208;18.216;2023-08-31T14:44:46;1.83;;;0.90;;
12681;SDS011;6405;59.208;18.216;2023-08-31T14:47:12;1.03;;;0.93;;
12681;SDS011;6405;59.208;18.216;2023-08-31T14:49:41;1.07;;;0.90;;
12681;SDS011;6405;59.208;18.216;2023-08-31T14:52:06;1.30;;;0.97;;
12681;SDS011;6405;59.208;18.216;2023-08-31T14:54:35;1.40;;;1.10;;